createdAt,value
2022-08-06T00:02:11.813Z,20.30
2022-08-06T00:04:40.418Z,20.17
2022-08-06T00:07:10.879Z,20.07
2022-08-06T00:09:56.336Z,19.98
2022-08-06T00:12:29.663Z,19.90
2022-08-06T00:14:58.835Z,19.84
2022-08-06T00:17:31.710Z,19.80
2022-08-06T00:20:01.522Z,19.73
2022-08-06T00:22:29.783Z,19.72
2022-08-06T00:24:58.606Z,19.70
2022-08-06T00:27:29.135Z,19.67
2022-08-06T00:30:05.880Z,19.69
2022-08-06T00:32:34.613Z,19.75
2022-08-06T00:35:02.854Z,19.77
2022-08-06T00:37:57.661Z,19.70
2022-08-06T00:40:24.245Z,19.69
2022-08-06T00:42:54.616Z,19.71
2022-08-06T00:45:23.851Z,19.73
2022-08-06T00:48:02.727Z,19.76
2022-08-06T00:50:32.288Z,19.75
2022-08-06T00:53:01.421Z,19.71
2022-08-06T00:55:36.589Z,19.70
2022-08-06T00:58:13.041Z,19.60
2022-08-06T01:00:45.414Z,19.42
2022-08-06T01:03:41.251Z,19.28
2022-08-06T01:06:53.734Z,19.20
2022-08-06T01:08:55.339Z,19.14
2022-08-06T01:11:23.180Z,19.16
2022-08-06T01:14:03.228Z,19.18
2022-08-06T01:16:50.933Z,19.20
2022-08-06T01:21:20.842Z,19.24
2022-08-06T01:22:31.398Z,19.26
2022-08-06T01:25:00.801Z,19.24
2022-08-06T01:27:37.566Z,19.22
2022-08-06T01:30:25.006Z,19.19
2022-08-06T01:32:53.334Z,19.15
2022-08-06T01:35:47.671Z,19.07
2022-08-06T01:38:18.861Z,18.97
2022-08-06T01:40:51.850Z,18.92
2022-08-06T01:44:04.977Z,18.91
2022-08-06T01:46:09.613Z,18.95
2022-08-06T01:48:40.386Z,18.98
2022-08-06T01:52:10.841Z,19.00
2022-08-06T01:54:06.424Z,18.93
2022-08-06T01:56:56.764Z,18.84
2022-08-06T01:59:48.362Z,18.77
2022-08-06T02:02:19.119Z,18.67
2022-08-06T02:05:02.852Z,18.62
2022-08-06T02:08:37.165Z,18.54
2022-08-06T02:10:30.774Z,18.50
2022-08-06T02:13:02.778Z,18.45
2022-08-06T02:15:58.830Z,18.36
2022-08-06T02:18:34.030Z,18.21
2022-08-06T02:21:18.586Z,18.10
2022-08-06T02:23:50.446Z,18.10
2022-08-06T02:26:19.925Z,18.19
2022-08-06T02:28:50.385Z,18.29
2022-08-06T02:31:22.510Z,18.39
2022-08-06T02:34:03.358Z,18.49
2022-08-06T02:36:53.441Z,18.58
2022-08-06T02:39:22.129Z,18.66
2022-08-06T02:42:07.459Z,18.70
2022-08-06T02:44:53.815Z,18.77
2022-08-06T02:47:52.750Z,18.82
2022-08-06T02:50:22.514Z,18.85
2022-08-06T02:52:59.879Z,18.83
2022-08-06T02:55:34.379Z,18.80
2022-08-06T02:58:07.827Z,18.78
2022-08-06T03:00:40.286Z,18.78
2022-08-06T03:03:21.751Z,18.77
2022-08-06T03:06:06.840Z,18.76
2022-08-06T03:08:37.245Z,18.74
2022-08-06T03:11:06.881Z,18.72
2022-08-06T03:13:36.210Z,18.68
2022-08-06T03:16:22.898Z,18.63
2022-08-06T03:19:54.675Z,18.59
2022-08-06T03:21:42.597Z,18.57
2022-08-06T03:24:19.554Z,18.50
2022-08-06T03:26:49.391Z,18.46
2022-08-06T03:29:17.454Z,18.42
2022-08-06T03:31:58.288Z,18.40
2022-08-06T03:34:29.522Z,18.35
2022-08-06T03:36:58.310Z,18.33
2022-08-06T03:39:30.140Z,18.34
2022-08-06T03:42:08.782Z,18.36
2022-08-06T03:44:38.824Z,18.44
2022-08-06T03:47:14.846Z,18.47
2022-08-06T03:49:46.709Z,18.51
2022-08-06T03:52:29.425Z,18.51
2022-08-06T03:55:04.291Z,18.51
2022-08-06T03:57:49.832Z,18.50
2022-08-06T04:00:28.153Z,18.54
2022-08-06T04:02:58.163Z,18.64
2022-08-06T04:05:33.000Z,18.72
2022-08-06T04:08:03.433Z,18.78
2022-08-06T04:10:57.166Z,18.84
2022-08-06T04:13:38.138Z,18.92
2022-08-06T04:16:29.994Z,18.98
2022-08-06T04:19:04.391Z,19.05
2022-08-06T04:23:04.977Z,19.10
2022-08-06T04:24:20.325Z,19.14
2022-08-06T04:26:53.415Z,19.18
2022-08-06T04:29:23.360Z,19.20
2022-08-06T04:32:19.168Z,19.24
2022-08-06T04:36:03.797Z,19.27
2022-08-06T04:37:38.811Z,19.30
2022-08-06T04:40:14.937Z,19.36
2022-08-06T04:42:45.841Z,19.38
2022-08-06T04:46:15.771Z,19.40
2022-08-06T04:48:04.059Z,19.43
2022-08-06T04:50:36.829Z,19.52
2022-08-06T04:53:30.130Z,19.61
2022-08-06T04:56:04.809Z,19.70
2022-08-06T04:58:33.445Z,19.75
2022-08-06T05:01:10.772Z,19.80
2022-08-06T05:04:07.466Z,19.86
2022-08-06T05:06:34.708Z,19.94
2022-08-06T05:09:20.642Z,20.06
2022-08-06T05:12:14.247Z,20.11
2022-08-06T05:15:03.675Z,20.16
2022-08-06T05:17:37.998Z,20.22
2022-08-06T05:20:27.849Z,20.29
2022-08-06T05:23:04.098Z,20.32
2022-08-06T05:25:37.474Z,20.37
2022-08-06T05:28:10.278Z,20.43
2022-08-06T05:30:46.735Z,20.54
2022-08-06T05:33:29.766Z,20.67
2022-08-06T05:36:05.259Z,20.79
2022-08-06T05:38:37.933Z,20.91
2022-08-06T05:41:09.628Z,20.97
2022-08-06T05:43:59.823Z,21.02
2022-08-06T05:46:28.691Z,21.08
2022-08-06T05:48:56.433Z,21.15
2022-08-06T05:51:44.905Z,21.21
2022-08-06T05:54:28.801Z,21.31
2022-08-06T05:57:04.757Z,21.39
2022-08-06T05:59:54.514Z,21.40
2022-08-06T06:02:24.014Z,21.38
2022-08-06T06:06:03.416Z,21.27
2022-08-06T06:08:09.991Z,21.26
2022-08-06T06:10:33.495Z,21.23
2022-08-06T06:13:03.595Z,21.20
2022-08-06T06:16:01.141Z,21.14
2022-08-06T06:18:34.756Z,21.08
2022-08-06T06:21:31.340Z,21.07
2022-08-06T06:24:03.604Z,21.05
2022-08-06T06:26:51.465Z,21.01
2022-08-06T06:30:05.029Z,20.98
2022-08-06T06:32:35.017Z,20.96
2022-08-06T06:35:14.323Z,20.97
2022-08-06T06:37:51.962Z,20.97
2022-08-06T06:40:29.317Z,20.92
2022-08-06T06:42:57.288Z,20.93
2022-08-06T06:46:06.958Z,20.97
2022-08-06T06:48:42.631Z,21.07
2022-08-06T06:51:40.664Z,21.23
2022-08-06T06:54:09.385Z,21.36
2022-08-06T06:56:51.948Z,21.44
2022-08-06T06:59:26.089Z,21.48
2022-08-06T07:02:15.511Z,21.43
2022-08-06T07:04:47.779Z,21.45
2022-08-06T07:07:23.139Z,21.44
2022-08-06T07:09:53.294Z,21.41
2022-08-06T07:12:22.992Z,21.36
2022-08-06T07:14:58.563Z,21.30
2022-08-06T07:17:45.165Z,21.42
2022-08-06T07:20:20.467Z,21.59
2022-08-06T07:24:03.271Z,21.65
2022-08-06T07:25:54.322Z,21.59
2022-08-06T07:28:29.004Z,21.58
2022-08-06T07:31:46.703Z,21.48
2022-08-06T07:34:29.069Z,21.35
2022-08-06T07:36:57.510Z,21.32
2022-08-06T07:39:31.210Z,21.31
2022-08-06T07:42:12.266Z,21.36
2022-08-06T07:44:55.924Z,21.37
2022-08-06T07:47:55.214Z,21.43
2022-08-06T07:50:25.390Z,21.49
2022-08-06T07:52:55.931Z,21.61
2022-08-06T07:55:36.904Z,21.70
2022-08-06T07:58:09.583Z,21.72
2022-08-06T08:00:42.128Z,21.73
2022-08-06T08:03:55.850Z,21.76
2022-08-06T08:06:26.946Z,21.77
2022-08-06T08:09:05.616Z,21.74
2022-08-06T08:11:37.613Z,21.69
2022-08-06T08:14:23.176Z,21.70
2022-08-06T08:16:51.808Z,21.70
2022-08-06T08:19:23.790Z,21.62
2022-08-06T08:22:01.612Z,21.56
2022-08-06T08:24:30.104Z,21.51
2022-08-06T08:27:12.262Z,21.44
2022-08-06T08:29:54.981Z,21.40
2022-08-06T08:32:29.736Z,21.32
2022-08-06T08:34:59.492Z,21.23
2022-08-06T08:37:31.798Z,21.19
2022-08-06T08:40:04.993Z,21.11
2022-08-06T08:42:56.601Z,21.05
2022-08-06T08:45:33.597Z,20.98
2022-08-06T08:51:49.932Z,20.77
2022-08-06T08:54:20.006Z,20.75
2022-08-06T09:00:40.664Z,20.51
2022-08-06T09:03:08.789Z,20.43
2022-08-06T09:05:47.471Z,20.27
2022-08-06T09:08:18.860Z,20.11
2022-08-06T09:10:48.065Z,19.97
2022-08-06T09:13:22.614Z,19.89
2022-08-06T09:16:01.616Z,19.81
2022-08-06T09:18:30.113Z,19.74
2022-08-06T09:21:00.929Z,19.68
2022-08-06T09:23:29.287Z,19.60
2022-08-06T09:26:06.495Z,19.54
2022-08-06T09:28:42.838Z,19.39
2022-08-06T09:31:21.865Z,19.28
2022-08-06T09:34:29.512Z,19.15
2022-08-06T09:36:45.650Z,19.04
2022-08-06T09:39:15.939Z,18.97
2022-08-06T09:41:52.671Z,18.94
2022-08-06T09:44:37.266Z,18.91
2022-08-06T09:47:07.657Z,18.88
2022-08-06T09:49:58.519Z,18.89
2022-08-06T09:52:29.322Z,18.85
2022-08-06T09:54:57.103Z,18.81
2022-08-06T09:57:42.637Z,18.71
2022-08-06T10:00:14.762Z,18.61
2022-08-06T10:02:51.417Z,18.56
2022-08-06T10:05:22.862Z,18.58
2022-08-06T10:08:03.488Z,18.55
2022-08-06T10:10:45.377Z,18.50
2022-08-06T10:13:26.268Z,18.51
2022-08-06T10:16:03.894Z,18.53
2022-08-06T10:18:55.827Z,18.51
2022-08-06T10:21:33.072Z,18.52
2022-08-06T10:24:12.608Z,18.53
2022-08-06T10:26:42.216Z,18.55
2022-08-06T10:29:11.737Z,18.54
2022-08-06T10:31:42.939Z,18.54
2022-08-06T10:34:12.562Z,18.56
2022-08-06T10:36:44.697Z,18.55
2022-08-06T10:40:08.382Z,18.54
2022-08-06T10:42:16.771Z,18.54
2022-08-06T10:44:59.954Z,18.49
2022-08-06T10:48:59.971Z,18.45
2022-08-06T10:50:38.144Z,18.40
2022-08-06T10:53:59.793Z,18.33
2022-08-06T10:56:05.032Z,18.33
2022-08-06T10:58:37.452Z,18.21
2022-08-06T11:01:08.137Z,18.03
2022-08-06T11:03:46.549Z,17.89
2022-08-06T11:06:46.425Z,17.77
2022-08-06T11:10:01.982Z,17.63
2022-08-06T11:12:25.179Z,17.49
2022-08-06T11:14:53.487Z,17.41
2022-08-06T11:17:22.109Z,17.36
2022-08-06T11:19:57.418Z,17.29
2022-08-06T11:22:39.568Z,17.25
2022-08-06T11:25:37.277Z,17.24
2022-08-06T11:28:08.614Z,17.22
2022-08-06T11:30:37.752Z,17.22
2022-08-06T11:33:06.190Z,17.17
2022-08-06T11:35:36.330Z,17.12
2022-08-06T11:38:39.064Z,17.08
2022-08-06T11:41:44.961Z,17.07
2022-08-06T11:44:07.869Z,17.06
2022-08-06T11:46:47.805Z,17.06
2022-08-06T11:49:21.607Z,17.06
2022-08-06T11:52:04.323Z,16.99
2022-08-06T11:54:59.514Z,16.92
2022-08-06T11:57:41.596Z,16.84
2022-08-06T12:00:16.224Z,16.83
2022-08-06T12:02:54.444Z,16.77
2022-08-06T12:05:25.394Z,16.73
2022-08-06T12:08:14.771Z,16.69
2022-08-06T12:11:08.957Z,16.63
2022-08-06T12:13:42.797Z,16.60
2022-08-06T12:16:30.360Z,16.56
2022-08-06T12:18:58.551Z,16.59
2022-08-06T12:21:27.099Z,16.59
2022-08-06T12:24:05.519Z,16.59
2022-08-06T12:26:36.563Z,16.56
2022-08-06T12:29:06.179Z,16.57
2022-08-06T12:31:44.109Z,16.56
2022-08-06T12:34:35.788Z,16.56
2022-08-06T12:37:03.593Z,16.53
2022-08-06T12:39:59.307Z,16.51
2022-08-06T12:42:51.990Z,16.56
2022-08-06T12:46:04.212Z,16.54
2022-08-06T12:48:11.672Z,16.54
2022-08-06T12:50:41.212Z,16.55
2022-08-06T12:53:11.559Z,16.47
2022-08-06T12:55:46.769Z,16.44
2022-08-06T12:58:41.187Z,16.43
2022-08-06T13:01:16.453Z,16.40
2022-08-06T13:04:06.902Z,16.42
2022-08-06T13:06:37.910Z,16.40
2022-08-06T13:09:08.698Z,16.43
2022-08-06T13:11:41.661Z,16.44
2022-08-06T13:14:18.511Z,16.47
2022-08-06T13:16:57.335Z,16.46
2022-08-06T13:19:33.300Z,16.43
2022-08-06T13:22:12.034Z,16.35
2022-08-06T13:25:03.294Z,16.30
2022-08-06T13:27:35.008Z,16.31
2022-08-06T13:30:33.162Z,16.30
2022-08-06T13:32:54.603Z,16.29
2022-08-06T13:35:27.287Z,16.29
2022-08-06T13:38:15.523Z,16.24
2022-08-06T13:40:57.449Z,16.23
2022-08-06T13:43:42.899Z,16.17
2022-08-06T13:46:33.111Z,16.18
2022-08-06T13:49:04.474Z,16.18
2022-08-06T13:51:49.156Z,16.15
2022-08-06T13:54:23.248Z,16.14
2022-08-06T13:56:56.131Z,16.17
2022-08-06T13:59:41.262Z,16.16
2022-08-06T14:02:11.921Z,16.21
2022-08-06T14:04:40.930Z,16.22
2022-08-06T14:07:17.837Z,16.16
2022-08-06T14:10:08.490Z,16.19
2022-08-06T14:12:34.781Z,16.23
2022-08-06T14:15:02.699Z,16.26
2022-08-06T14:17:34.494Z,16.30
2022-08-06T14:20:15.860Z,16.31
2022-08-06T14:22:48.257Z,16.34
2022-08-06T14:25:17.393Z,16.37
2022-08-06T14:27:45.392Z,16.38
2022-08-06T14:30:28.992Z,16.41
2022-08-06T14:33:10.254Z,16.43
2022-08-06T14:35:50.467Z,16.42
2022-08-06T14:38:20.864Z,16.34
2022-08-06T14:41:09.924Z,16.29
2022-08-06T14:43:57.920Z,16.26
2022-08-06T14:46:27.373Z,16.25
2022-08-06T14:49:09.206Z,16.27
2022-08-06T14:52:20.567Z,16.31
2022-08-06T14:54:32.280Z,16.36
2022-08-06T14:57:09.914Z,16.36
2022-08-06T14:59:48.518Z,16.36
2022-08-06T15:02:26.816Z,16.42
2022-08-06T15:04:55.770Z,16.45
2022-08-06T15:07:25.282Z,16.40
2022-08-06T15:10:03.861Z,16.41
2022-08-06T15:12:42.297Z,16.41
2022-08-06T15:15:15.524Z,16.36
2022-08-06T15:18:05.117Z,16.36
2022-08-06T15:20:32.533Z,16.37
2022-08-06T15:23:01.179Z,16.37
2022-08-06T15:25:44.892Z,16.35
2022-08-06T15:28:17.958Z,16.27
2022-08-06T15:30:47.500Z,16.24
2022-08-06T15:33:16.758Z,16.26
2022-08-06T15:35:58.608Z,16.34
2022-08-06T15:38:27.928Z,16.50
2022-08-06T15:41:00.732Z,16.65
2022-08-06T15:43:43.772Z,16.84
2022-08-06T15:46:14.335Z,17.04
2022-08-06T15:48:47.141Z,17.18
2022-08-06T15:51:30.149Z,17.38
2022-08-06T15:53:59.727Z,17.63
2022-08-06T15:56:33.765Z,17.94
2022-08-06T15:59:12.308Z,18.53
2022-08-06T16:02:01.163Z,18.89
2022-08-06T16:04:32.467Z,18.99
2022-08-06T16:07:05.819Z,18.98
2022-08-06T16:09:56.268Z,18.87
2022-08-06T16:12:23.620Z,18.73
2022-08-06T16:14:56.142Z,18.59
2022-08-06T16:17:33.752Z,18.55
2022-08-06T16:20:20.858Z,18.44
2022-08-06T16:22:52.325Z,18.24
2022-08-06T16:25:22.803Z,18.24
2022-08-06T16:27:52.339Z,18.20
2022-08-06T16:30:21.332Z,18.10
2022-08-06T16:32:49.781Z,18.00
2022-08-06T16:35:21.712Z,17.96
2022-08-06T16:37:55.458Z,17.97
2022-08-06T16:40:24.668Z,18.06
2022-08-06T16:42:53.766Z,18.03
2022-08-06T16:45:23.389Z,17.96
2022-08-06T16:48:03.886Z,17.84
2022-08-06T16:50:43.180Z,17.74
2022-08-06T16:54:14.876Z,17.69
2022-08-06T16:56:00.435Z,17.66
2022-08-06T16:58:33.335Z,17.67
2022-08-06T17:02:13.691Z,17.70
2022-08-06T17:06:42.124Z,17.52
2022-08-06T17:09:16.151Z,17.47
2022-08-06T17:11:57.788Z,17.38
2022-08-06T17:14:28.068Z,17.37
2022-08-06T17:17:00.571Z,17.40
2022-08-06T17:19:29.981Z,17.47
2022-08-06T17:22:01.129Z,17.51
2022-08-06T17:24:32.941Z,17.51
2022-08-06T17:27:08.905Z,17.49
2022-08-06T17:29:45.991Z,17.42
2022-08-06T17:32:27.665Z,17.37
2022-08-06T17:35:01.329Z,17.37
2022-08-06T17:37:43.036Z,17.38
2022-08-06T17:42:30.295Z,17.63
2022-08-06T17:43:12.219Z,17.39
2022-08-06T17:45:52.344Z,17.37
2022-08-06T17:48:30.953Z,17.37
2022-08-06T17:50:59.318Z,17.36
2022-08-06T17:53:53.190Z,17.34
2022-08-06T17:56:30.849Z,17.31
2022-08-06T17:59:16.472Z,17.30
2022-08-06T18:01:50.068Z,17.27
2022-08-06T18:04:30.772Z,17.25
2022-08-06T18:07:12.454Z,17.26
2022-08-06T18:10:16.574Z,17.28
2022-08-06T18:12:49.433Z,17.27
2022-08-06T18:15:19.293Z,17.27
2022-08-06T18:18:04.424Z,17.28
2022-08-06T18:20:38.475Z,17.23
2022-08-06T18:23:21.368Z,17.22
2022-08-06T18:25:57.734Z,17.22
2022-08-06T18:28:34.614Z,17.22
2022-08-06T18:31:09.515Z,17.22
2022-08-06T18:33:46.153Z,17.21
2022-08-06T18:36:15.925Z,17.19
2022-08-06T18:38:45.007Z,17.17
2022-08-06T18:41:15.840Z,17.18
2022-08-06T18:43:54.335Z,17.19
2022-08-06T18:46:56.633Z,17.21
2022-08-06T18:49:20.414Z,17.23
2022-08-06T18:51:57.549Z,17.24
2022-08-06T18:54:26.014Z,17.29
2022-08-06T18:56:56.219Z,17.33
2022-08-06T18:59:28.545Z,17.36
2022-08-06T19:01:59.115Z,17.39
2022-08-06T19:04:29.179Z,17.39
2022-08-06T19:06:59.933Z,17.41
2022-08-06T19:09:34.654Z,17.40
2022-08-06T19:12:12.947Z,17.40
2022-08-06T19:14:44.017Z,17.40
2022-08-06T19:17:17.674Z,17.38
2022-08-06T19:20:26.534Z,17.34
2022-08-06T19:23:02.324Z,17.33
2022-08-06T19:25:52.647Z,17.31
2022-08-06T19:28:35.881Z,17.28
2022-08-06T19:31:07.548Z,17.27
2022-08-06T19:33:39.916Z,17.25
2022-08-06T19:36:31.330Z,17.24
2022-08-06T19:38:56.003Z,17.25
2022-08-06T19:41:55.511Z,17.28
2022-08-06T19:44:25.671Z,17.30
2022-08-06T19:47:02.562Z,17.34
2022-08-06T19:49:41.155Z,17.37
2022-08-06T19:52:09.842Z,17.40
2022-08-06T19:54:42.096Z,17.40
2022-08-06T19:57:13.497Z,17.39
2022-08-06T20:00:53.202Z,17.36
2022-08-06T20:02:50.415Z,17.35
2022-08-06T20:05:21.791Z,17.36
2022-08-06T20:08:10.741Z,17.35
2022-08-06T20:10:41.172Z,17.33
2022-08-06T20:13:10.184Z,17.30
2022-08-06T20:15:46.553Z,17.21
2022-08-06T20:18:15.661Z,17.11
2022-08-06T20:20:43.756Z,17.07
2022-08-06T20:23:16.810Z,17.04
2022-08-06T20:26:15.321Z,17.00
2022-08-06T20:29:08.729Z,17.02
2022-08-06T20:31:23.045Z,17.04
2022-08-06T20:33:59.107Z,17.07
2022-08-06T20:36:29.802Z,17.10
2022-08-06T20:38:58.320Z,17.14
2022-08-06T20:42:04.846Z,17.15
2022-08-06T20:44:17.973Z,17.14
2022-08-06T20:47:46.481Z,17.12
2022-08-06T20:50:03.414Z,17.10
2022-08-06T20:52:24.728Z,17.10
2022-08-06T20:54:56.833Z,17.08
2022-08-06T20:57:27.511Z,17.06
2022-08-06T20:59:58.220Z,17.03
2022-08-06T21:02:32.559Z,16.95
2022-08-06T21:05:13.094Z,16.88
2022-08-06T21:07:56.894Z,16.87
2022-08-06T21:10:30.331Z,17.39
2022-08-06T21:13:02.682Z,17.97
2022-08-06T21:15:54.382Z,18.51
2022-08-06T21:37:42.469Z,20.10
2022-08-06T21:40:15.244Z,20.17
2022-08-06T21:42:57.238Z,20.29
2022-08-06T21:45:26.596Z,20.40
2022-08-06T21:48:14.893Z,20.49
2022-08-06T21:50:56.337Z,20.58
2022-08-06T21:53:53.154Z,20.66
2022-08-06T21:56:36.818Z,20.72
2022-08-06T21:59:10.045Z,20.67
2022-08-06T22:02:10.953Z,20.69
2022-08-06T22:04:34.660Z,20.77
2022-08-06T22:07:07.888Z,20.73
2022-08-06T22:09:42.803Z,20.79
2022-08-06T22:12:40.185Z,20.80
2022-08-06T22:14:59.258Z,20.64
2022-08-06T22:17:34.494Z,20.53
2022-08-06T22:20:21.517Z,20.60
2022-08-06T22:22:55.487Z,20.70
2022-08-06T22:25:24.914Z,20.73
2022-08-06T22:27:55.741Z,20.71
2022-08-06T22:30:36.943Z,20.70
2022-08-06T22:33:14.607Z,20.69
2022-08-06T22:35:57.501Z,20.66
2022-08-06T22:38:32.398Z,20.60
2022-08-06T22:41:00.637Z,20.55
2022-08-06T22:43:46.411Z,20.45
2022-08-06T22:46:17.363Z,20.39
2022-08-06T22:48:47.282Z,20.38
2022-08-06T22:51:28.514Z,20.37
2022-08-06T22:54:29.524Z,20.38
2022-08-06T22:57:05.060Z,20.39
2022-08-06T23:00:11.918Z,20.31
2022-08-06T23:02:23.397Z,20.22
2022-08-06T23:04:52.868Z,20.21
2022-08-06T23:07:25.638Z,20.18
2022-08-06T23:09:58.569Z,20.02
2022-08-06T23:12:36.483Z,19.80
2022-08-06T23:15:30.321Z,19.76
2022-08-06T23:18:00.656Z,19.75
2022-08-06T23:20:32.982Z,19.70
2022-08-06T23:23:04.673Z,19.67
2022-08-06T23:26:00.135Z,19.66
2022-08-06T23:28:22.791Z,19.71
2022-08-06T23:30:52.339Z,19.82
2022-08-06T23:33:20.325Z,19.96
2022-08-06T23:35:48.307Z,19.97
2022-08-06T23:38:33.502Z,19.91
2022-08-06T23:41:05.339Z,19.83
2022-08-06T23:43:44.116Z,19.85
2022-08-06T23:46:12.307Z,19.90
2022-08-06T23:48:51.530Z,19.96
2022-08-06T23:52:01.451Z,20.00
2022-08-06T23:54:16.038Z,19.99
2022-08-06T23:56:57.652Z,19.96
2022-08-06T23:59:44.870Z,19.98
